Time;durP1;ratioP1;P1;durP2;ratioP2;P2;SDS_P1;SDS_P2;PMS_P1;PMS_P2;Temp;Humidity;BMP_temperature;BMP_pressure;BME280_temperature;BME280_humidity;BME280_pressure;Samples;Min_cycle;Max_cycle;Signal;HPM_P1;HPM_P2
2022/01/13 00:02:24;;;;;;;13.65;9.95;;;2.20;99.90;;;;;;5078796;28;20569;-55
2022/01/13 00:04:52;;;;;;;15.63;10.23;;;2.20;99.90;;;;;;5081635;28;20050;-53
2022/01/13 00:07:18;;;;;;;12.52;9.10;;;2.20;99.90;;;;;;5078475;28;20054;-55
2022/01/13 00:09:53;;;;;;;11.95;9.30;;;2.20;99.90;;;;;;5082125;28;20415;-56
2022/01/13 00:12:26;;;;;;;11.45;8.15;;;2.20;99.90;;;;;;5083925;28;20044;-52
2022/01/13 00:15:20;;;;;;;16.55;11.68;;;2.20;99.90;;;;;;5081885;28;20504;-56
2022/01/13 00:25:53;;;;;;;10.77;8.52;;;2.10;99.90;;;;;;5087463;28;20132;-53
2022/01/13 00:28:21;;;;;;;11.10;8.55;;;2.10;99.90;;;;;;5087736;28;20502;-54
2022/01/13 00:30:53;;;;;;;11.88;8.43;;;2.10;99.90;;;;;;5086806;28;20130;-55
2022/01/13 00:33:24;;;;;;;11.48;8.85;;;2.10;99.90;;;;;;5087064;28;20070;-56
2022/01/13 00:35:55;;;;;;;12.27;8.95;;;2.10;99.90;;;;;;5087256;28;20040;-54
2022/01/13 00:38:22;;;;;;;13.00;9.00;;;2.10;99.90;;;;;;5087360;28;20123;-55
2022/01/13 00:40:48;;;;;;;10.73;7.63;;;2.10;99.90;;;;;;5087777;28;20191;-54
2022/01/13 00:43:15;;;;;;;11.10;7.75;;;2.00;99.90;;;;;;5085200;28;20135;-55
2022/01/13 00:45:42;;;;;;;9.35;7.00;;;2.00;99.90;;;;;;5086512;28;20059;-51
2022/01/13 00:48:09;;;;;;;10.55;7.47;;;2.00;99.90;;;;;;5086816;28;20075;-53
2022/01/13 00:50:36;;;;;;;10.50;7.80;;;2.00;99.90;;;;;;5087066;28;20076;-57
2022/01/13 00:53:03;;;;;;;12.40;8.25;;;1.90;99.90;;;;;;5086581;28;20165;-55
2022/01/13 00:55:57;;;;;;;10.65;8.00;;;1.90;99.90;;;;;;5087286;28;20094;-52
2022/01/13 00:58:26;;;;;;;10.75;7.10;;;1.90;99.90;;;;;;5087095;28;20071;-59
2022/01/13 01:00:53;;;;;;;10.23;7.32;;;1.80;99.90;;;;;;5086236;28;20135;-53
2022/01/13 01:03:20;;;;;;;9.32;6.93;;;1.80;99.90;;;;;;5082905;28;20048;-55
2022/01/13 01:05:47;;;;;;;10.13;7.10;;;1.80;99.90;;;;;;5084060;28;20063;-54
2022/01/13 01:08:14;;;;;;;10.93;7.97;;;1.80;99.90;;;;;;5085303;28;20082;-56
2022/01/13 01:10:46;;;;;;;10.40;8.00;;;1.90;99.90;;;;;;5085330;28;20059;-56
2022/01/13 01:13:15;;;;;;;12.43;7.75;;;1.90;99.90;;;;;;5086175;28;20537;-55
2022/01/13 01:15:46;;;;;;;11.57;8.73;;;1.80;99.90;;;;;;5084326;28;20079;-55
2022/01/13 01:24:08;;;;;;;9.70;6.90;;;1.80;99.90;;;;;;5072311;28;20135;-56
2022/01/13 01:31:36;;;;;;;10.80;7.38;;;1.80;99.90;;;;;;5085113;28;20179;-56
2022/01/13 01:36:39;;;;;;;9.38;6.38;;;1.70;99.90;;;;;;5085981;28;20080;-55
2022/01/13 01:39:07;;;;;;;11.65;7.60;;;1.70;99.90;;;;;;5086077;28;20076;-52
2022/01/13 01:41:39;;;;;;;9.07;6.95;;;1.70;99.90;;;;;;5085804;28;20150;-53
2022/01/13 01:44:30;;;;;;;8.45;6.10;;;1.70;99.90;;;;;;5077385;28;20726;-53
2022/01/13 01:46:58;;;;;;;9.45;6.43;;;1.80;99.90;;;;;;5085595;28;20078;-55
2022/01/13 01:49:26;;;;;;;9.43;6.45;;;1.70;99.90;;;;;;5085853;28;20043;-55
2022/01/13 01:51:55;;;;;;;7.38;5.55;;;1.70;99.90;;;;;;5085643;28;20134;-53
2022/01/13 01:54:22;;;;;;;10.73;7.40;;;1.70;99.90;;;;;;5085836;28;20156;-54
2022/01/13 01:56:49;;;;;;;8.70;6.68;;;1.70;99.90;;;;;;5084659;28;20452;-54
2022/01/13 01:59:18;;;;;;;8.07;6.65;;;1.70;99.90;;;;;;5084536;28;20079;-56
2022/01/13 02:01:46;;;;;;;8.85;5.90;;;1.70;99.90;;;;;;5083611;28;20087;-55
2022/01/13 02:09:08;;;;;;;8.45;6.40;;;1.70;99.90;;;;;;5025581;28;20061;-84
2022/01/13 02:11:47;;;;;;;10.30;7.07;;;1.60;99.90;;;;;;5010703;28;20135;-85
2022/01/13 02:14:48;;;;;;;10.20;6.93;;;1.60;99.90;;;;;;5002467;28;20050;-84
2022/01/13 02:17:12;;;;;;;8.93;6.85;;;1.60;99.90;;;;;;5046857;28;20450;-84
2022/01/13 02:19:41;;;;;;;9.82;6.40;;;1.60;99.90;;;;;;5024353;28;20053;-85
2022/01/13 02:22:08;;;;;;;7.97;5.72;;;1.60;99.90;;;;;;5011873;28;20470;-84
2022/01/13 02:24:35;;;;;;;9.05;6.28;;;1.60;99.90;;;;;;5011925;28;20057;-86
2022/01/13 02:27:03;;;;;;;8.32;6.28;;;1.60;99.90;;;;;;5011986;28;20061;-86
2022/01/13 02:29:30;;;;;;;10.18;7.00;;;1.60;99.90;;;;;;5031873;28;20049;-86
2022/01/13 02:31:57;;;;;;;7.97;7.03;;;1.60;99.90;;;;;;5095206;23;20534;-51
2022/01/13 02:34:24;;;;;;;8.77;6.95;;;1.60;99.90;;;;;;5023296;28;20919;-52
2022/01/13 02:36:53;;;;;;;8.07;6.22;;;1.60;99.90;;;;;;5023764;28;20666;-54
2022/01/13 02:39:21;;;;;;;9.13;6.30;;;1.60;99.90;;;;;;5025967;28;20129;-52
2022/01/13 02:41:48;;;;;;;10.70;6.60;;;1.50;99.90;;;;;;5027344;28;20129;-52
2022/01/13 02:44:18;;;;;;;9.05;6.32;;;1.50;99.90;;;;;;5027018;28;20049;-54
2022/01/13 02:49:16;;;;;;;8.98;6.38;;;1.50;99.90;;;;;;5021752;28;20152;-50
2022/01/13 02:51:45;;;;;;;8.15;6.03;;;1.50;99.90;;;;;;5024165;28;20164;-54
2022/01/13 02:54:12;;;;;;;7.43;5.78;;;1.50;99.90;;;;;;5025013;28;20084;-53
2022/01/13 02:56:39;;;;;;;7.85;5.18;;;1.50;99.90;;;;;;5025132;28;20232;-51
2022/01/13 02:59:06;;;;;;;9.77;6.25;;;1.50;99.90;;;;;;5024841;28;20175;-50
2022/01/13 03:01:33;;;;;;;6.75;5.28;;;1.40;99.90;;;;;;5023247;28;20073;-54
2022/01/13 03:04:05;;;;;;;8.13;6.13;;;1.50;99.90;;;;;;5025059;28;20057;-51
2022/01/13 03:06:34;;;;;;;8.63;6.57;;;1.40;99.90;;;;;;5022791;28;20133;-53
2022/01/13 03:09:13;;;;;;;10.05;6.78;;;1.50;99.90;;;;;;5025170;28;20073;-52
2022/01/13 03:11:39;;;;;;;7.63;6.05;;;1.30;99.90;;;;;;5024239;28;20140;-56
2022/01/13 03:14:11;;;;;;;9.57;5.75;;;1.30;99.90;;;;;;5024480;28;20077;-54
2022/01/13 03:16:42;;;;;;;6.95;5.60;;;1.20;99.90;;;;;;5023840;28;20073;-55
2022/01/13 03:19:09;;;;;;;8.00;6.15;;;1.30;99.90;;;;;;5024488;28;20041;-53
2022/01/13 03:21:36;;;;;;;8.45;5.85;;;1.30;99.90;;;;;;5024093;28;20092;-55
2022/01/13 03:24:07;;;;;;;9.00;6.00;;;1.30;99.90;;;;;;5025382;28;20603;-55
2022/01/13 03:26:34;;;;;;;8.63;5.45;;;1.30;99.90;;;;;;5024712;28;20091;-53
2022/01/13 03:31:37;;;;;;;7.60;5.15;;;1.30;99.90;;;;;;5023439;28;20057;-54
2022/01/13 03:34:04;;;;;;;7.45;5.18;;;1.30;99.90;;;;;;5024435;28;20049;-54
2022/01/13 03:36:30;;;;;;;9.38;5.95;;;1.30;99.90;;;;;;5023330;28;20053;-52
2022/01/13 03:38:57;;;;;;;7.47;5.03;;;1.30;99.90;;;;;;5025020;28;20136;-52
2022/01/13 03:41:24;;;;;;;7.53;5.28;;;1.30;99.90;;;;;;5006217;28;20049;-50
2022/01/13 03:43:53;;;;;;;6.03;4.90;;;1.30;99.90;;;;;;5024572;28;20124;-51
2022/01/13 03:46:20;;;;;;;6.97;4.93;;;1.30;99.90;;;;;;5023638;28;20052;-51
2022/01/13 03:48:47;;;;;;;6.15;4.55;;;1.30;99.90;;;;;;5023422;28;20147;-55
2022/01/13 03:51:13;;;;;;;7.00;5.53;;;1.30;99.90;;;;;;5024006;28;20132;-49
2022/01/13 03:54:18;;;;;;;5.47;4.68;;;1.30;99.90;;;;;;5024590;28;20456;-55
2022/01/13 03:57:19;;;;;;;6.82;4.82;;;1.30;99.90;;;;;;5024431;28;20126;-53
2022/01/13 04:00:13;;;;;;;7.82;4.93;;;1.30;99.90;;;;;;5024287;28;20933;-55
2022/01/13 04:02:40;;;;;;;7.60;5.03;;;1.20;99.90;;;;;;5023692;28;20092;-52
2022/01/13 04:05:07;;;;;;;7.97;4.90;;;1.20;99.90;;;;;;5023625;28;20049;-52
2022/01/13 04:07:34;;;;;;;9.23;4.72;;;1.20;99.90;;;;;;5024154;28;20128;-53
2022/01/13 04:10:29;;;;;;;8.45;6.03;;;1.20;99.90;;;;;;5014863;28;20366;-51
2022/01/13 04:12:56;;;;;;;8.18;5.45;;;1.20;99.90;;;;;;5014258;28;20077;-51
2022/01/13 04:15:24;;;;;;;7.03;5.18;;;1.20;99.90;;;;;;5023974;28;20157;-50
2022/01/13 04:17:51;;;;;;;7.22;4.75;;;1.20;99.90;;;;;;5023634;28;20085;-53
2022/01/13 04:20:18;;;;;;;6.72;4.47;;;1.20;99.90;;;;;;5023357;28;20077;-52
2022/01/13 04:22:45;;;;;;;6.10;4.85;;;1.10;99.90;;;;;;5022018;28;20081;-53
2022/01/13 04:25:14;;;;;;;6.15;4.38;;;1.10;99.90;;;;;;5006060;28;20065;-54
2022/01/13 04:27:44;;;;;;;6.03;4.20;;;1.10;99.90;;;;;;5024151;28;20402;-55
2022/01/13 04:32:43;;;;;;;4.43;3.70;;;1.10;99.90;;;;;;5026687;28;20613;-53
2022/01/13 04:35:10;;;;;;;6.70;4.45;;;1.10;99.90;;;;;;5027277;28;20322;-54
2022/01/13 04:37:37;;;;;;;5.45;4.40;;;1.10;99.90;;;;;;5025535;28;21761;-51
2022/01/13 04:40:05;;;;;;;6.43;4.72;;;1.10;99.90;;;;;;5014831;28;20073;-53
2022/01/13 04:42:36;;;;;;;6.97;4.25;;;1.00;99.90;;;;;;5027566;28;20077;-51
2022/01/13 04:45:03;;;;;;;6.25;4.78;;;1.10;99.90;;;;;;5027091;28;20053;-55
2022/01/13 04:47:30;;;;;;;5.97;4.35;;;1.10;99.90;;;;;;5026476;28;20064;-52
2022/01/13 04:49:58;;;;;;;6.30;4.40;;;1.10;99.90;;;;;;5025594;28;20076;-52
2022/01/13 04:52:25;;;;;;;5.88;4.70;;;1.00;99.90;;;;;;5026826;28;20644;-51
2022/01/13 04:54:52;;;;;;;4.85;3.63;;;0.90;99.90;;;;;;5027004;28;20077;-52
2022/01/13 04:57:18;;;;;;;4.88;3.35;;;0.90;99.90;;;;;;5027590;28;20085;-53
2022/01/13 04:59:45;;;;;;;5.32;3.78;;;0.90;99.90;;;;;;5026605;28;20120;-52
2022/01/13 05:02:14;;;;;;;5.80;4.05;;;1.00;99.90;;;;;;5026254;28;20057;-52
2022/01/13 05:04:41;;;;;;;6.55;3.92;;;1.00;99.90;;;;;;5026138;28;20056;-51
2022/01/13 05:07:08;;;;;;;5.38;4.18;;;1.00;99.90;;;;;;5026783;28;20145;-53
2022/01/13 05:09:34;;;;;;;7.22;4.53;;;1.00;99.90;;;;;;5027012;28;20077;-51
2022/01/13 05:12:02;;;;;;;9.00;4.78;;;0.90;99.90;;;;;;5026742;28;20141;-54
2022/01/13 05:14:30;;;;;;;6.13;3.92;;;1.00;99.90;;;;;;5023684;28;20049;-52
2022/01/13 05:17:45;;;;;;;7.20;4.63;;;1.00;99.90;;;;;;5026051;28;20076;-55
2022/01/13 05:19:58;;;;;;;5.85;3.42;;;1.00;99.90;;;;;;5025815;28;20045;-55
2022/01/13 05:22:26;;;;;;;5.70;3.63;;;1.00;99.90;;;;;;5025743;28;20401;-56
2022/01/13 05:24:53;;;;;;;5.57;4.47;;;1.00;99.90;;;;;;5027048;28;20495;-52
2022/01/13 05:27:21;;;;;;;6.75;4.03;;;1.00;99.90;;;;;;5026794;28;20149;-54
2022/01/13 05:29:47;;;;;;;5.28;3.97;;;1.00;99.90;;;;;;5026207;28;20092;-53
2022/01/13 05:32:15;;;;;;;6.05;4.28;;;1.00;99.90;;;;;;5025281;28;20089;-51
2022/01/13 05:34:42;;;;;;;7.47;4.40;;;1.00;99.90;;;;;;5013906;28;20081;-51
2022/01/13 05:37:10;;;;;;;7.20;4.57;;;1.00;99.90;;;;;;5025395;28;20058;-55
2022/01/13 05:39:37;;;;;;;6.90;4.63;;;1.00;99.90;;;;;;5026581;28;20471;-55
2022/01/13 05:42:04;;;;;;;6.38;4.63;;;1.00;99.90;;;;;;5023531;28;20196;-51
2022/01/13 05:44:37;;;;;;;6.72;4.93;;;0.90;99.90;;;;;;5015758;28;20196;-55
2022/01/13 05:47:10;;;;;;;5.88;4.53;;;0.90;99.90;;;;;;5014126;28;20100;-53
2022/01/13 05:49:41;;;;;;;6.05;4.32;;;0.90;99.90;;;;;;5020199;28;20455;-53
2022/01/13 05:52:08;;;;;;;6.03;4.88;;;0.80;99.90;;;;;;5021329;28;20124;-55
2022/01/13 05:54:35;;;;;;;6.15;4.32;;;0.80;99.90;;;;;;5021656;28;20227;-57
2022/01/13 05:57:02;;;;;;;5.93;3.63;;;0.80;99.90;;;;;;5018926;28;20183;-54
2022/01/13 05:59:29;;;;;;;5.88;4.30;;;0.80;99.90;;;;;;5020576;28;20100;-57
2022/01/13 06:01:56;;;;;;;4.72;4.03;;;0.90;99.90;;;;;;5018208;28;20152;-53
2022/01/13 06:04:23;;;;;;;7.20;3.90;;;0.90;99.90;;;;;;5013918;28;21307;-55
2022/01/13 06:06:50;;;;;;;5.90;3.45;;;0.80;99.90;;;;;;5018223;28;20103;-55
2022/01/13 06:09:17;;;;;;;5.25;3.55;;;0.90;99.90;;;;;;5014316;28;20470;-52
2022/01/13 06:11:55;;;;;;;8.55;4.45;;;0.90;99.90;;;;;;5017570;28;20176;-50
2022/01/13 06:14:21;;;;;;;8.20;4.40;;;0.80;99.90;;;;;;5017686;28;20132;-53
2022/01/13 06:16:48;;;;;;;5.70;3.60;;;0.80;99.90;;;;;;5019126;28;20905;-54
2022/01/13 06:19:15;;;;;;;6.70;3.90;;;0.80;99.90;;;;;;5018209;28;20156;-50
2022/01/13 06:21:41;;;;;;;4.85;3.45;;;0.80;99.90;;;;;;5008697;28;20388;-53
2022/01/13 06:24:08;;;;;;;5.72;3.72;;;0.80;99.90;;;;;;5018253;28;20109;-53
2022/01/13 06:26:35;;;;;;;5.13;3.38;;;0.80;99.90;;;;;;5007572;28;20141;-54
2022/01/13 06:29:02;;;;;;;6.07;4.10;;;0.90;99.90;;;;;;5018515;28;20461;-54
2022/01/13 06:31:29;;;;;;;4.32;3.47;;;0.90;99.90;;;;;;5015986;28;20571;-52
2022/01/13 06:33:56;;;;;;;4.93;3.30;;;0.80;99.90;;;;;;5011845;28;20113;-52
2022/01/13 06:36:22;;;;;;;4.93;3.53;;;0.80;99.90;;;;;;5015733;28;20551;-55
2022/01/13 06:38:50;;;;;;;5.45;3.47;;;0.80;99.90;;;;;;5005075;28;20053;-52
2022/01/13 06:41:18;;;;;;;4.78;3.33;;;0.80;99.90;;;;;;5009171;28;20119;-53
2022/01/13 06:43:45;;;;;;;4.35;3.22;;;0.80;99.90;;;;;;5005362;28;20137;-55
2022/01/13 06:46:12;;;;;;;4.70;3.30;;;0.80;99.90;;;;;;5016345;28;20481;-55
2022/01/13 06:48:39;;;;;;;5.35;3.40;;;0.80;99.90;;;;;;5015130;28;20049;-55
2022/01/13 06:51:06;;;;;;;4.07;3.28;;;0.80;99.90;;;;;;5012332;28;20152;-53
2022/01/13 06:53:33;;;;;;;4.38;3.20;;;0.80;99.90;;;;;;5016827;28;20060;-55
2022/01/13 06:55:59;;;;;;;5.70;3.50;;;0.70;99.90;;;;;;5010735;28;20467;-52
2022/01/13 06:58:27;;;;;;;6.35;3.55;;;0.80;99.90;;;;;;5003447;28;20064;-55
2022/01/13 07:00:54;;;;;;;6.28;4.28;;;0.80;99.90;;;;;;5009479;28;20104;-53
2022/01/13 07:03:22;;;;;;;6.15;4.50;;;0.80;99.90;;;;;;5016269;28;20050;-54
2022/01/13 07:05:48;;;;;;;6.68;4.25;;;0.80;99.90;;;;;;5016778;28;20057;-54
2022/01/13 07:08:15;;;;;;;6.50;4.68;;;0.80;99.90;;;;;;5013270;28;20398;-51
2022/01/13 07:10:42;;;;;;;5.53;4.10;;;0.80;99.90;;;;;;5015654;28;20616;-53
2022/01/13 07:13:09;;;;;;;4.72;3.67;;;0.70;99.90;;;;;;5009036;28;20056;-55
2022/01/13 07:15:35;;;;;;;5.78;4.15;;;0.80;99.90;;;;;;5013047;28;20104;-52
2022/01/13 07:18:02;;;;;;;5.38;3.33;;;0.80;99.90;;;;;;5037461;28;20053;-54
2022/01/13 07:20:29;;;;;;;5.40;3.67;;;0.70;99.90;;;;;;5031202;28;20084;-54
2022/01/13 07:22:57;;;;;;;4.65;3.47;;;0.70;99.90;;;;;;5017179;28;21157;-56
2022/01/13 07:25:24;;;;;;;6.32;4.15;;;0.70;99.90;;;;;;5017540;28;20077;-55
2022/01/13 07:27:51;;;;;;;4.95;3.45;;;0.70;99.90;;;;;;5011930;28;20077;-53
2022/01/13 07:30:18;;;;;;;4.53;3.42;;;0.70;99.90;;;;;;5016194;28;20847;-56
2022/01/13 07:32:45;;;;;;;5.15;3.42;;;0.70;99.90;;;;;;5016775;28;20530;-55
2022/01/13 07:35:12;;;;;;;6.15;3.47;;;0.70;99.90;;;;;;5012244;28;20045;-53
2022/01/13 07:37:39;;;;;;;5.82;3.92;;;0.70;99.90;;;;;;5009129;28;20472;-56
2022/01/13 07:40:08;;;;;;;4.65;3.20;;;0.70;99.90;;;;;;5007403;28;20050;-54
2022/01/13 07:42:41;;;;;;;5.70;3.47;;;0.70;99.90;;;;;;5011334;28;20443;-54
2022/01/13 07:45:09;;;;;;;6.72;3.90;;;0.70;99.90;;;;;;5010396;28;20155;-54
2022/01/13 07:47:36;;;;;;;6.57;3.47;;;0.70;99.90;;;;;;4998856;28;20112;-56
2022/01/13 07:50:04;;;;;;;5.82;3.42;;;0.70;99.90;;;;;;4999004;28;20145;-56
2022/01/13 07:52:31;;;;;;;5.88;3.88;;;0.70;99.90;;;;;;5009388;28;20141;-50
2022/01/13 07:54:58;;;;;;;7.07;4.55;;;0.80;99.90;;;;;;5016434;28;20136;-54
2022/01/13 07:57:25;;;;;;;5.50;4.72;;;0.70;99.90;;;;;;4998971;28;20140;-53
2022/01/13 07:59:56;;;;;;;6.28;4.05;;;0.80;99.90;;;;;;4999047;28;20074;-53
2022/01/13 08:02:26;;;;;;;5.30;4.30;;;0.80;99.90;;;;;;5016263;28;20057;-54
2022/01/13 08:04:53;;;;;;;6.72;4.70;;;0.80;99.90;;;;;;5020872;28;20060;-53
2022/01/13 08:07:21;;;;;;;5.72;4.38;;;0.80;99.90;;;;;;5026541;28;20481;-55
2022/01/13 08:09:47;;;;;;;5.47;3.63;;;0.80;99.90;;;;;;5042814;28;20506;-55
2022/01/13 08:12:15;;;;;;;6.43;4.20;;;0.90;99.90;;;;;;5042556;28;20127;-54
2022/01/13 08:14:42;;;;;;;4.82;3.65;;;0.90;99.90;;;;;;5008505;28;20165;-52
2022/01/13 08:17:18;;;;;;;5.22;3.38;;;0.90;99.90;;;;;;5002546;28;20107;-55
2022/01/13 08:19:45;;;;;;;6.28;3.92;;;0.90;99.90;;;;;;5017116;28;20140;-55
2022/01/13 08:22:14;;;;;;;6.57;3.58;;;0.90;99.90;;;;;;5042162;28;20128;-54
2022/01/13 08:24:41;;;;;;;5.35;3.92;;;0.90;99.90;;;;;;5019285;28;20107;-51
2022/01/13 08:27:07;;;;;;;5.57;3.58;;;0.90;99.90;;;;;;5014224;28;20165;-53
2022/01/13 08:29:34;;;;;;;5.70;4.00;;;0.90;99.90;;;;;;5015074;28;20492;-56
2022/01/13 08:32:01;;;;;;;5.72;3.47;;;1.00;99.90;;;;;;5018613;28;20156;-55
2022/01/13 08:34:28;;;;;;;5.88;4.05;;;0.90;99.90;;;;;;5009500;28;20145;-52
2022/01/13 08:36:55;;;;;;;5.03;3.38;;;1.00;99.90;;;;;;5009913;28;20077;-55
2022/01/13 08:39:22;;;;;;;7.20;3.88;;;1.00;99.90;;;;;;5010768;28;20672;-53
2022/01/13 08:41:49;;;;;;;5.28;4.03;;;1.10;99.90;;;;;;5010842;28;20200;-51
2022/01/13 08:44:16;;;;;;;5.93;4.15;;;1.10;99.90;;;;;;5010878;28;20157;-51
2022/01/13 08:46:43;;;;;;;6.10;3.75;;;1.10;99.90;;;;;;5012313;28;20480;-54
2022/01/13 08:49:10;;;;;;;5.82;4.30;;;1.20;99.90;;;;;;5010233;28;20038;-54
2022/01/13 08:51:36;;;;;;;5.55;3.78;;;1.20;99.90;;;;;;5009630;28;20100;-54
2022/01/13 08:54:03;;;;;;;8.02;4.55;;;1.30;99.90;;;;;;5013620;28;20137;-51
2022/01/13 08:56:30;;;;;;;7.05;4.07;;;1.30;99.90;;;;;;5015023;28;20084;-55
2022/01/13 08:58:57;;;;;;;5.22;3.72;;;1.40;99.90;;;;;;5013093;28;20588;-55
2022/01/13 09:01:24;;;;;;;6.63;4.50;;;1.50;99.90;;;;;;5021172;28;20133;-53
2022/01/13 09:03:50;;;;;;;7.43;4.63;;;1.50;99.90;;;;;;5018300;28;20404;-53
2022/01/13 09:06:17;;;;;;;7.38;4.85;;;1.50;99.90;;;;;;5009377;28;20169;-54
2022/01/13 09:08:44;;;;;;;6.22;4.00;;;1.60;99.90;;;;;;5006982;28;20217;-54
2022/01/13 09:11:11;;;;;;;6.57;4.25;;;1.60;99.90;;;;;;5018860;28;20495;-54
2022/01/13 09:13:38;;;;;;;5.57;3.92;;;1.60;99.90;;;;;;5017347;28;20097;-51
2022/01/13 09:16:13;;;;;;;5.30;3.97;;;1.70;99.90;;;;;;5020883;28;20164;-55
2022/01/13 09:21:13;;;;;;;6.20;4.60;;;1.70;99.90;;;;;;5005902;28;20128;-53
2022/01/13 09:23:40;;;;;;;5.97;3.67;;;1.80;99.90;;;;;;5007457;28;20145;-54
2022/01/13 09:26:07;;;;;;;4.60;3.40;;;1.80;99.90;;;;;;5005586;28;20073;-56
2022/01/13 09:28:34;;;;;;;5.95;4.13;;;1.80;99.90;;;;;;5003528;28;20053;-56
2022/01/13 09:31:02;;;;;;;5.15;3.60;;;1.90;99.90;;;;;;5019557;28;20144;-56
2022/01/13 09:33:29;;;;;;;5.43;4.03;;;1.90;99.90;;;;;;5013965;28;20057;-57
2022/01/13 09:35:56;;;;;;;7.25;4.20;;;1.90;99.90;;;;;;5011987;28;20112;-53
2022/01/13 09:38:23;;;;;;;5.65;3.97;;;2.00;99.90;;;;;;5001798;28;20085;-55
2022/01/13 09:40:52;;;;;;;5.20;3.83;;;2.00;99.90;;;;;;5000963;28;20136;-55
2022/01/13 09:43:23;;;;;;;4.43;3.60;;;2.00;99.90;;;;;;5005215;28;20053;-56
2022/01/13 09:45:51;;;;;;;5.35;3.50;;;2.10;99.90;;;;;;5010510;28;20042;-54
2022/01/13 09:48:18;;;;;;;6.93;3.72;;;2.20;99.90;;;;;;5015693;28;20069;-54
2022/01/13 09:50:47;;;;;;;7.10;4.85;;;2.20;99.90;;;;;;5010948;28;20181;-56
2022/01/13 09:53:14;;;;;;;6.25;4.38;;;2.20;99.90;;;;;;5003510;28;20168;-56
2022/01/13 09:55:42;;;;;;;7.20;4.10;;;2.30;99.90;;;;;;5016983;28;20185;-54
2022/01/13 09:58:13;;;;;;;7.22;4.47;;;2.30;99.90;;;;;;5007616;28;20130;-55
2022/01/13 10:00:41;;;;;;;6.40;3.55;;;2.40;99.90;;;;;;5009971;28;20081;-56
2022/01/13 10:03:19;;;;;;;6.63;3.97;;;2.50;99.90;;;;;;5004831;28;20125;-55
2022/01/13 10:05:57;;;;;;;5.88;3.90;;;2.50;99.90;;;;;;5011376;28;20524;-55
2022/01/13 10:08:46;;;;;;;5.07;3.40;;;2.60;99.90;;;;;;5009981;28;20130;-54
2022/01/13 10:11:40;;;;;;;5.15;3.45;;;2.70;99.90;;;;;;5009566;28;20060;-55
2022/01/13 10:14:10;;;;;;;;;;;2.80;99.90;;;;;;5014092;28;20140;-56
2022/01/13 10:16:48;;;;;;;4.35;3.05;;;2.90;99.90;;;;;;5008393;28;20503;-56
2022/01/13 10:19:38;;;;;;;4.10;2.92;;;3.00;99.90;;;;;;5038020;28;20048;-56
2022/01/13 10:22:11;;;;;;;4.22;3.10;;;3.10;99.90;;;;;;5036006;28;20560;-56
2022/01/13 10:24:39;;;;;;;4.43;3.35;;;3.20;99.90;;;;;;5015250;28;20064;-57
2022/01/13 10:27:12;;;;;;;5.03;3.33;;;3.30;99.90;;;;;;5012769;28;20136;-57
2022/01/13 10:29:49;;;;;;;4.57;3.05;;;3.40;99.90;;;;;;5015052;28;20480;-55
2022/01/13 10:32:38;;;;;;;4.60;3.20;;;3.50;99.90;;;;;;5008978;28;20057;-55
2022/01/13 10:35:12;;;;;;;4.85;3.15;;;3.60;99.90;;;;;;5008129;28;20489;-55
2022/01/13 10:37:39;;;;;;;;;;;3.70;99.90;;;;;;5008928;28;20042;-54
2022/01/13 10:40:12;;;;;;;3.50;2.78;;;3.80;99.90;;;;;;5011529;28;20107;-53
2022/01/13 10:45:33;;;;;;;5.20;2.65;;;4.00;99.90;;;;;;5007294;28;20053;-54
2022/01/13 10:48:12;;;;;;;4.10;3.05;;;4.10;99.90;;;;;;5025763;28;20807;-55
2022/01/13 10:50:42;;;;;;;3.83;2.80;;;4.20;99.90;;;;;;5030966;28;20132;-56
2022/01/13 10:53:30;;;;;;;5.63;3.25;;;4.30;99.90;;;;;;5017585;28;20076;-54
2022/01/13 10:56:05;;;;;;;4.65;3.00;;;4.40;99.90;;;;;;5009719;28;20408;-57
2022/01/13 10:58:41;;;;;;;4.93;3.40;;;4.60;99.90;;;;;;5006188;28;20466;-55
2022/01/13 11:01:10;;;;;;;4.03;3.00;;;4.70;99.90;;;;;;5014902;28;20080;-55
2022/01/13 11:03:39;;;;;;;4.50;3.05;;;4.80;99.90;;;;;;5010828;28;20054;-52
2022/01/13 11:06:08;;;;;;;4.32;2.90;;;4.90;99.90;;;;;;5013257;28;20088;-55
2022/01/13 11:08:44;;;;;;;6.28;3.92;;;5.00;99.90;;;;;;5017692;28;20734;-54
2022/01/13 11:11:25;;;;;;;5.28;3.88;;;5.10;99.90;;;;;;5017286;28;20049;-55
2022/01/13 11:13:57;;;;;;;5.77;3.47;;;5.20;99.90;;;;;;5006875;28;20148;-53
2022/01/13 11:16:35;;;;;;;6.60;3.42;;;5.40;99.90;;;;;;5013392;28;20418;-53
2022/01/13 11:19:05;;;;;;;4.60;3.08;;;5.60;99.90;;;;;;5011199;28;20369;-56
2022/01/13 11:21:32;;;;;;;5.80;3.42;;;5.80;99.90;;;;;;5016148;28;20113;-53
2022/01/13 11:24:00;;;;;;;3.95;2.95;;;5.90;99.90;;;;;;5000607;28;20077;-56
2022/01/13 11:26:30;;;;;;;3.10;2.47;;;6.00;99.90;;;;;;5003856;28;20216;-57
2022/01/13 11:28:58;;;;;;;4.32;2.50;;;6.10;99.90;;;;;;5003893;28;20162;-56
2022/01/13 11:31:24;;;;;;;3.85;2.28;;;6.20;99.90;;;;;;5017723;28;20596;-54
2022/01/13 11:33:51;;;;;;;3.97;2.20;;;6.20;99.90;;;;;;5026951;28;20394;-57
2022/01/13 11:36:18;;;;;;;4.22;2.10;;;6.30;99.90;;;;;;5019192;28;20057;-57
2022/01/13 11:38:59;;;;;;;3.25;2.10;;;6.40;99.90;;;;;;5018126;28;20583;-55
2022/01/13 11:41:25;;;;;;;5.25;1.90;;;6.40;99.90;;;;;;5014640;28;20132;-57
2022/01/13 11:43:52;;;;;;;2.70;1.85;;;6.50;99.90;;;;;;5009121;28;20451;-56
2022/01/13 11:46:26;;;;;;;2.42;1.35;;;6.60;99.90;;;;;;5021800;28;20068;-55
2022/01/13 11:48:57;;;;;;;2.08;1.50;;;6.70;99.90;;;;;;5022284;28;20057;-56
2022/01/13 11:51:25;;;;;;;2.97;1.48;;;6.80;99.90;;;;;;5014511;28;20108;-57
2022/01/13 11:53:59;;;;;;;3.08;1.70;;;6.90;99.90;;;;;;5009030;28;20516;-51
2022/01/13 11:56:27;;;;;;;3.95;1.48;;;7.00;99.90;;;;;;5015087;28;20131;-53
2022/01/13 11:58:54;;;;;;;3.05;1.40;;;7.10;99.90;;;;;;5016352;28;20173;-57
2022/01/13 12:01:28;;;;;;;2.33;1.25;;;7.20;99.90;;;;;;5012165;28;20461;-55
2022/01/13 12:04:00;;;;;;;3.20;1.20;;;7.30;99.90;;;;;;5013018;28;20622;-55
2022/01/13 12:06:46;;;;;;;2.75;1.20;;;7.40;99.90;;;;;;5014460;28;20672;-51
2022/01/13 12:09:23;;;;;;;2.55;1.08;;;7.60;99.90;;;;;;5018263;28;20084;-56
2022/01/13 12:11:56;;;;;;;1.95;1.20;;;7.70;99.90;;;;;;5040555;28;20470;-56
2022/01/13 12:14:23;;;;;;;5.13;1.73;;;7.90;99.90;;;;;;5030701;28;20172;-56
2022/01/13 12:16:57;;;;;;;2.67;1.50;;;8.10;99.90;;;;;;5012420;28;20128;-55
2022/01/13 12:19:37;;;;;;;3.33;1.75;;;8.30;99.90;;;;;;5021942;28;20183;-56
2022/01/13 12:22:11;;;;;;;2.40;1.50;;;8.50;99.90;;;;;;5018408;28;20097;-54
2022/01/13 12:24:49;;;;;;;2.72;1.65;;;8.70;99.90;;;;;;5014485;28;20083;-57
2022/01/13 12:27:20;;;;;;;2.28;1.60;;;8.90;99.90;;;;;;5006002;28;20896;-55
2022/01/13 12:29:54;;;;;;;1.95;1.38;;;9.10;99.90;;;;;;5007534;28;20133;-57
2022/01/13 12:32:39;;;;;;;2.33;1.60;;;9.30;99.90;;;;;;5016060;28;20462;-57
2022/01/13 12:35:08;;;;;;;4.45;2.40;;;9.60;99.90;;;;;;5015185;28;20120;-57
2022/01/13 12:37:38;;;;;;;3.20;2.20;;;9.80;99.90;;;;;;5019889;28;20045;-57
2022/01/13 12:40:19;;;;;;;3.30;2.22;;;10.00;99.90;;;;;;5012732;28;20119;-56
2022/01/13 12:42:52;;;;;;;2.28;1.80;;;10.20;99.90;;;;;;5018207;28;20164;-57
2022/01/13 12:45:28;;;;;;;3.63;2.00;;;10.40;99.90;;;;;;5018337;28;20093;-57
2022/01/13 12:47:59;;;;;;;2.38;1.88;;;10.60;99.90;;;;;;5004824;28;20136;-57
2022/01/13 12:50:33;;;;;;;2.70;1.40;;;10.80;99.90;;;;;;5002882;28;20045;-56
2022/01/13 12:53:25;;;;;;;3.00;1.60;;;11.00;99.90;;;;;;5011151;28;20663;-56
2022/01/13 12:56:01;;;;;;;2.38;1.40;;;11.20;99.90;;;;;;5011392;28;20136;-57
2022/01/13 12:58:30;;;;;;;3.25;1.75;;;11.40;99.90;;;;;;5002818;28;21099;-56
2022/01/13 13:01:03;;;;;;;2.38;1.77;;;11.50;99.90;;;;;;5009953;28;20057;-57
2022/01/13 13:03:30;;;;;;;3.40;1.98;;;11.70;99.90;;;;;;5008600;28;20107;-57
2022/01/13 13:05:57;;;;;;;3.28;2.17;;;11.80;99.90;;;;;;5016944;28;20132;-56
2022/01/13 13:08:25;;;;;;;3.15;2.53;;;12.00;99.90;;;;;;5019254;28;20475;-58
2022/01/13 13:11:00;;;;;;;3.70;2.58;;;12.10;99.90;;;;;;5008967;28;20167;-57
2022/01/13 13:13:28;;;;;;;4.43;2.30;;;12.30;99.90;;;;;;5003085;28;20497;-56
2022/01/13 13:15:59;;;;;;;3.55;2.25;;;12.30;99.90;;;;;;5017363;28;20582;-57
2022/01/13 13:18:27;;;;;;;6.25;2.10;;;12.50;99.90;;;;;;5009032;28;20057;-56
2022/01/13 13:20:54;;;;;;;3.58;2.05;;;12.60;99.90;;;;;;5010591;28;20080;-57
2022/01/13 13:23:27;;;;;;;3.05;1.90;;;12.70;99.90;;;;;;5002273;28;20164;-57
2022/01/13 13:25:55;;;;;;;2.75;1.98;;;12.70;99.90;;;;;;5020961;28;20087;-58
2022/01/13 13:28:27;;;;;;;2.60;1.52;;;12.90;99.90;;;;;;5004051;28;20115;-56
2022/01/13 13:31:21;;;;;;;3.40;1.63;;;13.00;99.90;;;;;;5017512;28;20541;-57
2022/01/13 13:34:00;;;;;;;3.47;1.45;;;13.00;99.90;;;;;;5008205;28;20471;-57
2022/01/13 13:36:29;;;;;;;2.75;1.33;;;13.10;99.90;;;;;;5007674;28;20112;-57
2022/01/13 13:38:57;;;;;;;3.42;1.70;;;13.20;99.90;;;;;;5007899;28;20049;-58
2022/01/13 13:41:29;;;;;;;4.03;1.80;;;13.40;99.90;;;;;;5019212;28;20502;-55
2022/01/13 13:44:14;;;;;;;2.70;1.80;;;13.30;99.90;;;;;;5006513;28;20546;-56
2022/01/13 13:46:51;;;;;;;2.10;1.50;;;13.30;99.90;;;;;;5011872;28;20164;-55
2022/01/13 13:49:19;;;;;;;2.10;1.40;;;13.40;99.90;;;;;;5018291;28;20049;-57
2022/01/13 13:51:50;;;;;;;2.20;1.70;;;13.40;99.90;;;;;;5012099;28;20085;-58